Time;durP1;ratioP1;P1;durP2;ratioP2;P2;SDS_P1;SDS_P2;PMS_P1;PMS_P2;Temp;Humidity;BMP_temperature;BMP_pressure;BME280_temperature;BME280_humidity;BME280_pressure;Samples;Min_cycle;Max_cycle;Signal;HPM_P1;HPM_P2
2023/08/25 00:01:41;;;;;;;;;;;;;;;;;;5030773;28;19908;-67
2023/08/25 00:04:07;;;;;;;;;;;;;;;;;;5030725;28;19912;-67
2023/08/25 00:06:33;;;;;;;;;;;;;;;;;;5030679;28;20059;-68
2023/08/25 00:08:59;;;;;;;;;;;;;;;;;;5030036;28;19915;-68
2023/08/25 00:11:25;;;;;;;;;;;;;;;;;;5013080;28;19905;-68
2023/08/25 00:13:52;;;;;;;;;;;;;;;;;;5030696;28;19970;-68
2023/08/25 00:16:17;;;;;;;;;;;;;;;;;;5030760;28;20389;-68
2023/08/25 00:18:45;;;;;;;;;;;;;;;;;;5030031;28;19943;-67
2023/08/25 00:21:11;;;;;;;;;;;;;;;;;;5030624;28;19906;-67
2023/08/25 00:23:37;;;;;;;;;;;;;;;;;;5030623;28;19909;-68
2023/08/25 00:26:03;;;;;;;;;;;;;;;;;;5030413;28;20411;-68
2023/08/25 00:28:29;;;;;;;;;;;;;;;;;;5029841;28;19948;-67
2023/08/25 00:30:55;;;;;;;;;;;;;;;;;;5030467;28;20439;-68
2023/08/25 00:33:21;;;;;;;;;;;;;;;;;;5030317;28;19916;-68
2023/08/25 00:35:47;;;;;;;;;;;;;;;;;;5030527;28;20506;-67
2023/08/25 00:38:13;;;;;;;;;;;;;;;;;;5029797;28;19964;-67
2023/08/25 00:40:38;;;;;;;;;;;;;;;;;;5030266;28;20524;-67
2023/08/25 00:43:04;;;;;;;;;;;;;;;;;;5012723;28;20365;-67
2023/08/25 00:45:30;;;;;;;;;;;;;;;;;;5032496;28;20012;-67
2023/08/25 00:47:56;;;;;;;;;;;;;;;;;;5033261;28;20361;-67
2023/08/25 00:50:22;;;;;;;;;;;;;;;;;;5034199;28;19927;-67
2023/08/25 00:52:48;;;;;;;;;;;;;;;;;;5034877;28;19963;-67
2023/08/25 00:55:14;;;;;;;;;;;;;;;;;;5033828;28;19905;-67
2023/08/25 00:57:40;;;;;;;;;;;;;;;;;;5033364;28;19916;-67
2023/08/25 01:00:06;;;;;;;;;;;;;;;;;;5033898;28;19920;-67
2023/08/25 01:02:32;;;;;;;;;;;;;;;;;;5034615;28;19984;-67
2023/08/25 01:04:58;;;;;;;;;;;;;;;;;;5036250;28;19909;-67
2023/08/25 01:07:24;;;;;;;;;;;;;;;;;;5033774;28;20284;-67
2023/08/25 01:09:50;;;;;;;;;;;;;;;;;;5033601;28;19943;-67
2023/08/25 01:12:17;;;;;;;;;;;;;;;;;;5033572;28;19905;-67
2023/08/25 01:14:43;;;;;;;;;;;;;;;;;;5033698;28;19916;-67
2023/08/25 01:17:08;;;;;;;;;;;;;;;;;;5033214;28;20961;-68
2023/08/25 01:19:34;;;;;;;;;;;;;;;;;;5033419;28;19909;-67
2023/08/25 01:22:00;;;;;;;;;;;;;;;;;;5033314;28;19905;-68
2023/08/25 01:24:26;;;;;;;;;;;;;;;;;;5033300;28;19928;-68
2023/08/25 01:26:52;;;;;;;;;;;;;;;;;;5033450;28;19905;-69
2023/08/25 01:29:18;;;;;;;;;;;;;;;;;;5034084;28;19912;-68
2023/08/25 01:31:44;;;;;;;;;;;;;;;;;;5033955;28;19928;-68
2023/08/25 01:34:13;;;;;;;;;;;;;;;;;;5033713;28;19963;-68
2023/08/25 01:36:39;;;;;;;;;;;;;;;;;;5033256;28;19999;-68
2023/08/25 01:39:06;;;;;;;;;;;;;;;;;;5032777;28;19980;-67
2023/08/25 01:41:32;;;;;;;;;;;;;;;;;;5033222;28;19905;-67
2023/08/25 01:43:58;;;;;;;;;;;;;;;;;;5015248;28;19905;-67
2023/08/25 01:46:24;;;;;;;;;;;;;;;;;;5032942;28;19994;-67
2023/08/25 01:48:50;;;;;;;;;;;;;;;;;;5032275;28;19913;-67
2023/08/25 01:51:16;;;;;;;;;;;;;;;;;;5032776;28;20027;-67
2023/08/25 01:53:42;;;;;;;;;;;;;;;;;;5032782;28;19943;-67
2023/08/25 01:56:08;;;;;;;;;;;;;;;;;;5031966;28;20285;-67
2023/08/25 01:58:34;;;;;;;;;;;;;;;;;;5031920;28;19912;-67
2023/08/25 02:01:00;;;;;;;;;;;;;;;;;;5032413;28;19917;-67
2023/08/25 02:03:25;;;;;;;;;;;;;;;;;;5032733;28;19959;-67
2023/08/25 02:05:51;;;;;;;;;;;;;;;;;;5032381;28;19932;-66
2023/08/25 02:08:17;;;;;;;;;;;;;;;;;;5031833;28;19909;-66
2023/08/25 02:10:43;;;;;;;;;;;;;;;;;;5032533;28;19916;-66
2023/08/25 02:13:09;;;;;;;;;;;;;;;;;;5032386;28;20404;-66
2023/08/25 02:15:35;;;;;;;;;;;;;;;;;;5032363;28;19909;-66
2023/08/25 02:18:01;;;;;;;;;;;;;;;;;;5013951;28;19999;-67
2023/08/25 02:20:27;;;;;;;;;;;;;;;;;;5032116;28;20392;-67
2023/08/25 02:22:53;;;;;;;;;;;;;;;;;;5032172;28;19909;-67
2023/08/25 02:25:19;;;;;;;;;;;;;;;;;;5032421;28;19905;-67
2023/08/25 02:27:44;;;;;;;;;;;;;;;;;;5031578;28;19916;-67
2023/08/25 02:30:10;;;;;;;;;;;;;;;;;;5031987;28;19993;-67
2023/08/25 02:32:36;;;;;;;;;;;;;;;;;;5031903;28;19905;-67
2023/08/25 02:35:03;;;;;;;;;;;;;;;;;;5031937;28;20004;-67
2023/08/25 02:37:29;;;;;;;;;;;;;;;;;;5031268;28;19915;-67
2023/08/25 02:39:55;;;;;;;;;;;;;;;;;;5031760;28;19905;-67
2023/08/25 02:42:21;;;;;;;;;;;;;;;;;;5031895;28;19905;-68
2023/08/25 02:44:46;;;;;;;;;;;;;;;;;;5031880;28;19996;-67
2023/08/25 02:47:12;;;;;;;;;;;;;;;;;;5031273;28;20353;-67
2023/08/25 02:49:38;;;;;;;;;;;;;;;;;;5031562;28;19905;-67
2023/08/25 02:52:04;;;;;;;;;;;;;;;;;;5031750;28;20363;-67
2023/08/25 02:54:30;;;;;;;;;;;;;;;;;;5031781;28;19909;-68
2023/08/25 02:56:56;;;;;;;;;;;;;;;;;;5013689;28;19905;-68
2023/08/25 02:59:22;;;;;;;;;;;;;;;;;;5031039;28;20382;-68
2023/08/25 03:01:48;;;;;;;;;;;;;;;;;;5032337;28;19909;-71
2023/08/25 03:04:13;;;;;;;;;;;;;;;;;;5031325;28;19912;-70
2023/08/25 03:06:39;;;;;;;;;;;;;;;;;;5031392;28;20387;-70
2023/08/25 03:09:05;;;;;;;;;;;;;;;;;;5030808;28;19950;-70
2023/08/25 03:11:31;;;;;;;;;;;;;;;;;;5031551;28;19991;-70
2023/08/25 03:13:57;;;;;;;;;;;;;;;;;;5031238;28;20328;-70
2023/08/25 03:16:23;;;;;;;;;;;;;;;;;;5031370;28;20388;-70
2023/08/25 03:18:49;;;;;;;;;;;;;;;;;;5030632;28;19940;-70
2023/08/25 03:21:15;;;;;;;;;;;;;;;;;;5031174;28;19967;-70
2023/08/25 03:23:41;;;;;;;;;;;;;;;;;;5031308;28;19912;-70
2023/08/25 03:26:07;;;;;;;;;;;;;;;;;;5031533;28;20520;-70
2023/08/25 03:28:33;;;;;;;;;;;;;;;;;;5030868;28;19940;-71
2023/08/25 03:30:59;;;;;;;;;;;;;;;;;;5030972;28;19975;-70
2023/08/25 03:33:25;;;;;;;;;;;;;;;;;;5030859;28;19915;-71
2023/08/25 03:35:51;;;;;;;;;;;;;;;;;;5031117;28;19905;-70
2023/08/25 03:38:17;;;;;;;;;;;;;;;;;;5030225;28;20258;-69
2023/08/25 03:40:43;;;;;;;;;;;;;;;;;;5030879;28;19909;-69
2023/08/25 03:43:09;;;;;;;;;;;;;;;;;;5030892;28;19909;-69
2023/08/25 03:45:34;;;;;;;;;;;;;;;;;;5013228;28;19963;-69
2023/08/25 03:48:00;;;;;;;;;;;;;;;;;;5029974;28;19916;-69
2023/08/25 03:50:26;;;;;;;;;;;;;;;;;;5031028;28;19917;-70
2023/08/25 03:52:52;;;;;;;;;;;;;;;;;;5030673;28;19913;-69
2023/08/25 03:55:18;;;;;;;;;;;;;;;;;;5031359;28;19996;-69
2023/08/25 03:57:44;;;;;;;;;;;;;;;;;;5030754;28;19905;-68
2023/08/25 04:00:10;;;;;;;;;;;;;;;;;;5031430;28;19920;-69
2023/08/25 04:02:39;;;;;;;;;;;;;;;;;;5031520;28;19905;-70
2023/08/25 04:05:05;;;;;;;;;;;;;;;;;;5032454;28;19905;-69
2023/08/25 04:07:31;;;;;;;;;;;;;;;;;;5014111;28;19911;-70
2023/08/25 04:09:57;;;;;;;;;;;;;;;;;;5031324;28;19905;-70
2023/08/25 04:12:23;;;;;;;;;;;;;;;;;;5030607;28;19951;-70
2023/08/25 04:14:49;;;;;;;;;;;;;;;;;;5030690;28;20408;-70
2023/08/25 04:17:15;;;;;;;;;;;;;;;;;;5029899;28;20392;-70
2023/08/25 04:19:40;;;;;;;;;;;;;;;;;;5028932;28;19908;-71
2023/08/25 04:22:06;;;;;;;;;;;;;;;;;;5035108;28;19928;-71
2023/08/25 04:24:32;;;;;;;;;;;;;;;;;;5034314;28;19952;-71
2023/08/25 04:26:58;;;;;;;;;;;;;;;;;;5034373;28;19905;-70
2023/08/25 04:29:24;;;;;;;;;;;;;;;;;;5033750;28;19948;-70
2023/08/25 04:31:50;;;;;;;;;;;;;;;;;;5034259;28;19992;-69
2023/08/25 04:34:16;;;;;;;;;;;;;;;;;;5034746;28;19908;-70
2023/08/25 04:36:45;;;;;;;;;;;;;;;;;;5034125;28;19905;-70
2023/08/25 04:39:11;;;;;;;;;;;;;;;;;;5033575;28;19919;-70
2023/08/25 04:41:37;;;;;;;;;;;;;;;;;;5034332;28;19901;-71
2023/08/25 04:44:02;;;;;;;;;;;;;;;;;;5034213;28;19905;-70
2023/08/25 04:46:29;;;;;;;;;;;;;;;;;;5033692;28;19940;-70
2023/08/25 04:48:55;;;;;;;;;;;;;;;;;;5030790;28;20343;-70
2023/08/25 04:51:21;;;;;;;;;;;;;;;;;;5034221;28;19905;-70
2023/08/25 04:53:47;;;;;;;;;;;;;;;;;;5033951;28;19909;-70
2023/08/25 04:56:14;;;;;;;;;;;;;;;;;;5033612;28;19951;-70
2023/08/25 04:58:40;;;;;;;;;;;;;;;;;;5032400;28;20347;-70
2023/08/25 05:01:06;;;;;;;;;;;;;;;;;;5033468;28;19913;-70
2023/08/25 05:03:32;;;;;;;;;;;;;;;;;;5033929;28;19939;-71
2023/08/25 05:05:59;;;;;;;;;;;;;;;;;;5033309;28;20348;-70
2023/08/25 05:08:25;;;;;;;;;;;;;;;;;;5033111;28;19996;-71
2023/08/25 05:10:51;;;;;;;;;;;;;;;;;;5033444;28;19937;-71
2023/08/25 05:13:17;;;;;;;;;;;;;;;;;;5033311;28;19978;-71
2023/08/25 05:15:43;;;;;;;;;;;;;;;;;;5033304;28;19909;-71
2023/08/25 05:18:09;;;;;;;;;;;;;;;;;;5032529;28;19923;-71
2023/08/25 05:20:35;;;;;;;;;;;;;;;;;;5032139;28;20339;-70
2023/08/25 05:23:00;;;;;;;;;;;;;;;;;;5032602;28;20384;-71
2023/08/25 05:25:26;;;;;;;;;;;;;;;;;;5031800;28;19996;-71
2023/08/25 05:27:55;;;;;;;;;;;;;;;;;;5039323;28;20278;-71
2023/08/25 05:30:21;;;;;;;;;;;;;;;;;;5032544;28;20451;-71
2023/08/25 05:32:47;;;;;;;;;;;;;;;;;;5031761;28;19920;-72
2023/08/25 05:35:12;;;;;;;;;;;;;;;;;;5040145;28;19905;-71
2023/08/25 05:37:40;;;;;;;;;;;;;;;;;;5032195;28;19905;-71
2023/08/25 05:40:07;;;;;;;;;;;;;;;;;;5032957;28;19905;-72
2023/08/25 05:42:33;;;;;;;;;;;;;;;;;;5032713;28;20253;-71
2023/08/25 05:44:59;;;;;;;;;;;;;;;;;;5033041;28;19909;-71
2023/08/25 05:47:25;;;;;;;;;;;;;;;;;;5019657;28;19974;-72
2023/08/25 05:49:51;;;;;;;;;;;;;;;;;;5036021;28;19905;-71
2023/08/25 05:52:17;;;;;;;;;;;;;;;;;;5032953;28;19905;-71
2023/08/25 05:54:43;;;;;;;;;;;;;;;;;;5032565;28;20360;-72
2023/08/25 05:57:09;;;;;;;;;;;;;;;;;;5032106;28;19905;-71
2023/08/25 05:59:35;;;;;;;;;;;;;;;;;;5032151;28;19936;-70
2023/08/25 06:02:01;;;;;;;;;;;;;;;;;;5032554;28;19958;-70
2023/08/25 06:04:27;;;;;;;;;;;;;;;;;;5032286;28;19905;-70
2023/08/25 06:06:53;;;;;;;;;;;;;;;;;;5032175;28;19912;-70
2023/08/25 06:09:18;;;;;;;;;;;;;;;;;;5031943;28;19912;-70
2023/08/25 06:11:44;;;;;;;;;;;;;;;;;;5032449;28;19912;-70
2023/08/25 06:14:10;;;;;;;;;;;;;;;;;;5032294;28;19917;-70
2023/08/25 06:16:36;;;;;;;;;;;;;;;;;;5032114;28;19951;-70
2023/08/25 06:19:02;;;;;;;;;;;;;;;;;;5031386;28;20078;-70
2023/08/25 06:21:28;;;;;;;;;;;;;;;;;;5032353;28;19905;-71
2023/08/25 06:23:54;;;;;;;;;;;;;;;;;;5032378;28;19905;-70
2023/08/25 06:26:20;;;;;;;;;;;;;;;;;;5032212;28;19909;-70
2023/08/25 06:28:46;;;;;;;;;;;;;;;;;;5031559;28;19912;-71
2023/08/25 06:31:12;;;;;;;;;;;;;;;;;;5031917;28;20008;-71
2023/08/25 06:33:38;;;;;;;;;;;;;;;;;;5031792;28;20031;-71
2023/08/25 06:36:04;;;;;;;;;;;;;;;;;;5031982;28;19909;-71
2023/08/25 06:38:31;;;;;;;;;;;;;;;;;;5013993;28;19912;-71
2023/08/25 06:40:56;;;;;;;;;;;;;;;;;;5032021;28;19909;-71
2023/08/25 06:43:23;;;;;;;;;;;;;;;;;;5032052;28;19905;-71
2023/08/25 06:45:49;;;;;;;;;;;;;;;;;;5032184;28;20388;-71
2023/08/25 06:48:14;;;;;;;;;;;;;;;;;;5030815;28;19943;-69
2023/08/25 06:50:40;;;;;;;;;;;;;;;;;;5031996;28;20296;-70
2023/08/25 06:53:07;;;;;;;;;;;;;;;;;;5031550;28;19931;-70
2023/08/25 06:55:33;;;;;;;;;;;;;;;;;;5031447;28;19944;-71
2023/08/25 06:57:59;;;;;;;;;;;;;;;;;;5030900;28;19999;-70
2023/08/25 07:00:25;;;;;;;;;;;;;;;;;;5031233;28;19993;-71
2023/08/25 07:02:51;;;;;;;;;;;;;;;;;;5031541;28;19905;-70
2023/08/25 07:05:18;;;;;;;;;;;;;;;;;;5031578;28;20400;-71
2023/08/25 07:07:44;;;;;;;;;;;;;;;;;;5031112;28;19911;-71
2023/08/25 07:10:10;;;;;;;;;;;;;;;;;;5030982;28;19909;-71
2023/08/25 07:12:36;;;;;;;;;;;;;;;;;;5031495;28;19913;-70
2023/08/25 07:15:02;;;;;;;;;;;;;;;;;;5031053;28;19909;-71
2023/08/25 07:17:29;;;;;;;;;;;;;;;;;;5030672;28;20266;-71
2023/08/25 07:19:55;;;;;;;;;;;;;;;;;;5031352;28;19927;-71
2023/08/25 07:22:21;;;;;;;;;;;;;;;;;;5031497;28;19905;-70
2023/08/25 07:24:47;;;;;;;;;;;;;;;;;;5033552;28;19916;-71
2023/08/25 07:27:13;;;;;;;;;;;;;;;;;;5031232;28;19905;-70
2023/08/25 07:29:39;;;;;;;;;;;;;;;;;;5031747;28;20266;-71
2023/08/25 07:32:04;;;;;;;;;;;;;;;;;;5031282;28;19964;-70
2023/08/25 07:34:30;;;;;;;;;;;;;;;;;;5031134;28;19909;-71
2023/08/25 07:36:56;;;;;;;;;;;;;;;;;;5029375;28;19917;-71
2023/08/25 07:39:22;;;;;;;;;;;;;;;;;;5030704;28;20396;-71
2023/08/25 07:41:48;;;;;;;;;;;;;;;;;;5030875;28;19912;-71
2023/08/25 07:44:14;;;;;;;;;;;;;;;;;;5030977;28;19905;-70
2023/08/25 07:46:40;;;;;;;;;;;;;;;;;;5030844;28;19913;-69
2023/08/25 07:49:06;;;;;;;;;;;;;;;;;;5030316;28;20376;-71
2023/08/25 07:51:32;;;;;;;;;;;;;;;;;;5036791;28;19945;-70
2023/08/25 07:53:58;;;;;;;;;;;;;;;;;;5033188;28;19916;-71
2023/08/25 07:56:24;;;;;;;;;;;;;;;;;;5033011;28;20404;-70
2023/08/25 07:58:50;;;;;;;;;;;;;;;;;;5034009;28;19909;-70
2023/08/25 08:01:16;;;;;;;;;;;;;;;;;;5034476;28;19917;-71
2023/08/25 08:03:42;;;;;;;;;;;;;;;;;;5034825;28;19905;-71
2023/08/25 08:06:08;;;;;;;;;;;;;;;;;;5034944;28;19912;-71
2023/08/25 08:08:33;;;;;;;;;;;;;;;;;;5034108;28;19916;-71
2023/08/25 08:10:59;;;;;;;;;;;;;;;;;;5034504;28;20377;-71
2023/08/25 08:13:25;;;;;;;;;;;;;;;;;;5034637;28;19916;-71
2023/08/25 08:15:51;;;;;;;;;;;;;;;;;;5034359;28;20007;-71
2023/08/25 08:18:17;;;;;;;;;;;;;;;;;;5033675;28;20010;-72
2023/08/25 08:20:43;;;;;;;;;;;;;;;;;;5034322;28;19940;-71
2023/08/25 08:23:09;;;;;;;;;;;;;;;;;;5034496;28;20341;-71
2023/08/25 08:25:36;;;;;;;;;;;;;;;;;;5034482;28;19944;-71
2023/08/25 08:28:02;;;;;;;;;;;;;;;;;;5033546;28;20284;-71
2023/08/25 08:30:28;;;;;;;;;;;;;;;;;;5034274;28;19915;-71
2023/08/25 08:32:54;;;;;;;;;;;;;;;;;;5034227;28;19912;-71
2023/08/25 08:35:20;;;;;;;;;;;;;;;;;;5034532;28;19909;-72
2023/08/25 08:37:46;;;;;;;;;;;;;;;;;;5034378;28;19905;-71
2023/08/25 08:40:12;;;;;;;;;;;;;;;;;;5017105;28;19917;-73
2023/08/25 08:42:39;;;;;;;;;;;;;;;;;;5035382;28;19995;-72
2023/08/25 08:45:05;;;;;;;;;;;;;;;;;;5036755;28;19916;-71
2023/08/25 08:47:31;;;;;;;;;;;;;;;;;;5038058;28;19952;-71
2023/08/25 08:49:58;;;;;;;;;;;;;;;;;;5038235;28;19905;-71
2023/08/25 08:52:23;;;;;;;;;;;;;;;;;;5039752;28;19905;-71
2023/08/25 08:54:49;;;;;;;;;;;;;;;;;;5038915;28;19959;-71
2023/08/25 08:57:15;;;;;;;;;;;;;;;;;;5038513;28;19992;-72
2023/08/25 08:59:42;;;;;;;;;;;;;;;;;;5038412;28;19909;-72
2023/08/25 09:02:08;;;;;;;;;;;;;;;;;;5035818;28;19936;-69
2023/08/25 09:04:34;;;;;;;;;;;;;;;;;;5033598;28;20411;-69
2023/08/25 09:06:59;;;;;;;;;;;;;;;;;;5033166;28;19963;-69
2023/08/25 09:09:25;;;;;;;;;;;;;;;;;;5033072;28;19940;-69
2023/08/25 09:11:51;;;;;;;;;;;;;;;;;;5033810;28;19905;-68
2023/08/25 09:14:17;;;;;;;;;;;;;;;;;;5033930;28;19908;-68
2023/08/25 09:16:43;;;;;;;;;;;;;;;;;;5033931;28;19905;-68
2023/08/25 09:19:09;;;;;;;;;;;;;;;;;;5033042;28;20301;-68
2023/08/25 09:21:35;;;;;;;;;;;;;;;;;;5033555;28;19908;-68
2023/08/25 09:24:02;;;;;;;;;;;;;;;;;;5033514;28;19959;-68
2023/08/25 09:26:28;;;;;;;;;;;;;;;;;;5033172;28;19995;-68
2023/08/25 09:28:54;;;;;;;;;;;;;;;;;;5032539;28;19987;-68
2023/08/25 09:31:20;;;;;;;;;;;;;;;;;;5033206;28;20337;-68
2023/08/25 09:33:46;;;;;;;;;;;;;;;;;;5015480;28;19909;-68
2023/08/25 09:36:12;;;;;;;;;;;;;;;;;;5032993;28;20296;-68
2023/08/25 09:38:38;;;;;;;;;;;;;;;;;;5032490;28;19916;-68
2023/08/25 09:41:04;;;;;;;;;;;;;;;;;;5032841;28;19909;-68
2023/08/25 09:43:30;;;;;;;;;;;;;;;;;;5033471;28;19909;-68
2023/08/25 09:45:56;;;;;;;;;;;;;;;;;;5032860;28;19905;-68
2023/08/25 09:48:22;;;;;;;;;;;;;;;;;;5032334;28;19929;-69
2023/08/25 09:50:49;;;;;;;;;;;;;;;;;;5032761;28;19933;-69
2023/08/25 09:53:15;;;;;;;;;;;;;;;;;;5032932;28;19909;-69
2023/08/25 09:55:41;;;;;;;;;;;;;;;;;;5032516;28;20376;-69
2023/08/25 09:58:07;;;;;;;;;;;;;;;;;;5031913;28;19905;-69
2023/08/25 10:00:33;;;;;;;;;;;;;;;;;;5032446;28;20376;-69
2023/08/25 10:02:59;;;;;;;;;;;;;;;;;;5032435;28;19912;-69
2023/08/25 10:05:24;;;;;;;;;;;;;;;;;;5032711;28;19905;-69
2023/08/25 10:07:50;;;;;;;;;;;;;;;;;;5031834;28;19943;-69
2023/08/25 10:10:16;;;;;;;;;;;;;;;;;;5032183;28;19995;-69
2023/08/25 10:12:42;;;;;;;;;;;;;;;;;;5032457;28;19912;-69
2023/08/25 10:15:09;;;;;;;;;;;;;;;;;;5032652;28;19915;-69
2023/08/25 10:17:35;;;;;;;;;;;;;;;;;;5029530;28;19909;-69
2023/08/25 10:20:04;;;;;;;;;;;;;;;;;;5030612;28;20025;-69
2023/08/25 10:22:30;;;;;;;;;;;;;;;;;;5031263;28;20325;-69
2023/08/25 10:24:56;;;;;;;;;;;;;;;;;;5036490;28;19924;-68
2023/08/25 10:27:22;;;;;;;;;;;;;;;;;;5035849;28;19921;-68
2023/08/25 10:29:48;;;;;;;;;;;;;;;;;;5031930;28;19975;-67
2023/08/25 10:32:13;;;;;;;;;;;;;;;;;;5031979;28;20622;-68
2023/08/25 10:34:41;;;;;;;;;;;;;;;;;;5031939;28;19913;-68
2023/08/25 10:37:07;;;;;;;;;;;;;;;;;;5024268;28;20327;-68
2023/08/25 10:39:33;;;;;;;;;;;;;;;;;;5031264;28;19905;-68
2023/08/25 10:41:59;;;;;;;;;;;;;;;;;;5031908;28;20324;-68
2023/08/25 10:44:26;;;;;;;;;;;;;;;;;;5032045;28;19905;-68
2023/08/25 10:46:52;;;;;;;;;;;;;;;;;;5031570;28;19905;-68
2023/08/25 10:49:18;;;;;;;;;;;;;;;;;;5031130;28;20288;-68
2023/08/25 10:51:44;;;;;;;;;;;;;;;;;;5031822;28;19912;-68
2023/08/25 10:54:10;;;;;;;;;;;;;;;;;;5038938;28;19913;-68
2023/08/25 10:56:39;;;;;;;;;;;;;;;;;;5031642;28;19909;-68
2023/08/25 10:59:05;;;;;;;;;;;;;;;;;;5031108;28;19911;-68
2023/08/25 11:01:31;;;;;;;;;;;;;;;;;;5031485;28;20450;-68
2023/08/25 11:03:57;;;;;;;;;;;;;;;;;;5031601;28;19905;-68
2023/08/25 11:06:22;;;;;;;;;;;;;;;;;;5031169;28;19910;-68
2023/08/25 11:08:48;;;;;;;;;;;;;;;;;;5029291;28;19992;-68
2023/08/25 11:11:14;;;;;;;;;;;;;;;;;;5031195;28;19959;-69
2023/08/25 11:13:40;;;;;;;;;;;;;;;;;;5031266;28;19919;-69
2023/08/25 11:16:06;;;;;;;;;;;;;;;;;;5027705;28;20410;-69
2023/08/25 11:18:32;;;;;;;;;;;;;;;;;;5020951;28;19958;-68
2023/08/25 11:20:58;;;;;;;;;;;;;;;;;;5024905;28;20230;-68
2023/08/25 11:23:24;;;;;;;;;;;;;;;;;;5020724;28;20040;-68
2023/08/25 11:25:50;;;;;;;;;;;;;;;;;;5022768;28;21014;-68
2023/08/25 11:28:16;;;;;;;;;;;;;;;;;;5022184;28;19999;-68
2023/08/25 11:30:42;;;;;;;;;;;;;;;;;;5023466;28;20007;-69
2023/08/25 11:33:09;;;;;;;;;;;;;;;;;;5022231;28;19913;-68
2023/08/25 11:35:34;;;;;;;;;;;;;;;;;;5025681;28;19927;-68
2023/08/25 11:38:00;;;;;;;;;;;;;;;;;;5012490;28;19999;-68
2023/08/25 11:40:26;;;;;;;;;;;;;;;;;;5032049;28;19905;-67
2023/08/25 11:42:53;;;;;;;;;;;;;;;;;;5031433;28;19909;-67
2023/08/25 11:45:18;;;;;;;;;;;;;;;;;;5035921;28;19915;-69
2023/08/25 11:47:45;;;;;;;;;;;;;;;;;;5039489;28;19944;-70
2023/08/25 11:50:11;;;;;;;;;;;;;;;;;;5041376;28;19909;-69
2023/08/25 11:52:36;;;;;;;;;;;;;;;;;;5030454;28;19958;-67
2023/08/25 11:55:02;;;;;;;;;;;;;;;;;;5037843;28;20370;-68
2023/08/25 11:57:28;;;;;;;;;;;;;;;;;;5032357;28;19905;-68
2023/08/25 11:59:54;;;;;;;;;;;;;;;;;;5032466;28;19936;-68
2023/08/25 12:02:20;;;;;;;;;;;;;;;;;;5043327;28;19955;-68
2023/08/25 12:04:46;;;;;;;;;;;;;;;;;;5034543;28;19959;-68
2023/08/25 12:07:12;;;;;;;;;;;;;;;;;;5033998;28;20004;-68
2023/08/25 12:09:38;;;;;;;;;;;;;;;;;;5032471;28;19905;-69
2023/08/25 12:12:04;;;;;;;;;;;;;;;;;;5030690;28;19933;-69
2023/08/25 12:14:30;;;;;;;;;;;;;;;;;;5030554;28;19913;-69
2023/08/25 12:16:56;;;;;;;;;;;;;;;;;;5038758;28;19909;-68
2023/08/25 12:19:22;;;;;;;;;;;;;;;;;;5032412;28;20257;-66
2023/08/25 12:21:47;;;;;;;;;;;;;;;;;;5048485;28;20433;-67
2023/08/25 12:24:13;;;;;;;;;;;;;;;;;;5049472;28;19905;-67
2023/08/25 12:26:40;;;;;;;;;;;;;;;;;;5049928;28;19924;-67
2023/08/25 12:29:06;;;;;;;;;;;;;;;;;;5049790;28;19999;-67
2023/08/25 12:31:32;;;;;;;;;;;;;;;;;;5050478;28;20407;-67
2023/08/25 12:33:58;;;;;;;;;;;;;;;;;;5032656;28;19908;-67
2023/08/25 12:36:24;;;;;;;;;;;;;;;;;;5050325;28;19926;-67
2023/08/25 12:38:50;;;;;;;;;;;;;;;;;;5050181;28;20006;-67
2023/08/25 12:41:16;;;;;;;;;;;;;;;;;;5051628;28;20015;-68
2023/08/25 12:43:42;;;;;;;;;;;;;;;;;;5048414;28;19911;-69
2023/08/25 12:46:08;;;;;;;;;;;;;;;;;;5033830;28;19912;-68
2023/08/25 12:48:34;;;;;;;;;;;;;;;;;;5033211;28;19905;-68
2023/08/25 12:51:00;;;;;;;;;;;;;;;;;;5033508;28;19995;-69
2023/08/25 12:53:26;;;;;;;;;;;;;;;;;;5033810;28;20009;-68
2023/08/25 12:55:53;;;;;;;;;;;;;;;;;;5034026;28;19905;-68
2023/08/25 12:58:18;;;;;;;;;;;;;;;;;;5033097;28;19912;-68
2023/08/25 13:00:44;;;;;;;;;;;;;;;;;;5032238;28;19952;-68
2023/08/25 13:03:11;;;;;;;;;;;;;;;;;;5032192;28;19999;-68
2023/08/25 13:05:37;;;;;;;;;;;;;;;;;;5032006;28;19911;-69
2023/08/25 13:08:03;;;;;;;;;;;;;;;;;;5039930;28;19908;-69
2023/08/25 13:10:29;;;;;;;;;;;;;;;;;;5032226;28;19905;-70
2023/08/25 13:12:55;;;;;;;;;;;;;;;;;;5032352;28;19912;-67
2023/08/25 13:15:21;;;;;;;;;;;;;;;;;;5032244;28;19909;-67
2023/08/25 13:17:48;;;;;;;;;;;;;;;;;;5031545;28;19904;-67
2023/08/25 13:20:14;;;;;;;;;;;;;;;;;;5032014;28;19979;-67
2023/08/25 13:22:40;;;;;;;;;;;;;;;;;;5032233;28;19932;-67
2023/08/25 13:25:06;;;;;;;;;;;;;;;;;;5032026;28;19959;-67
2023/08/25 13:27:32;;;;;;;;;;;;;;;;;;5031553;28;19928;-67
2023/08/25 13:29:58;;;;;;;;;;;;;;;;;;5032788;28;19905;-67
2023/08/25 13:32:24;;;;;;;;;;;;;;;;;;5050690;28;19928;-67
2023/08/25 13:34:50;;;;;;;;;;;;;;;;;;5050960;28;20383;-67
2023/08/25 13:37:17;;;;;;;;;;;;;;;;;;5051699;28;19951;-67
2023/08/25 13:39:42;;;;;;;;;;;;;;;;;;5051513;28;19908;-67
2023/08/25 13:42:08;;;;;;;;;;;;;;;;;;5052001;28;20288;-67
2023/08/25 13:44:38;;;;;;;;;;;;;;;;;;5051773;28;19916;-67
2023/08/25 13:47:04;;;;;;;;;;;;;;;;;;5051622;28;19908;-67
2023/08/25 13:49:29;;;;;;;;;;;;;;;;;;5051483;28;20360;-66
2023/08/25 13:51:55;;;;;;;;;;;;;;;;;;5051236;28;19904;-70
2023/08/25 13:54:21;;;;;;;;;;;;;;;;;;5051902;28;19935;-70
2023/08/25 13:56:47;;;;;;;;;;;;;;;;;;5034142;28;20368;-71
2023/08/25 13:59:13;;;;;;;;;;;;;;;;;;4992565;28;1190542;-70
2023/08/25 14:01:39;;;;;;;;;;;;;;;;;;5052810;28;19904;-70
2023/08/25 14:04:05;;;;;;;;;;;;;;;;;;5053128;28;20296;-70
2023/08/25 14:06:31;;;;;;;;;;;;;;;;;;5053938;28;19955;-70
2023/08/25 14:08:57;;;;;;;;;;;;;;;;;;5052928;28;19974;-70
2023/08/25 14:11:23;;;;;;;;;;;;;;;;;;5042227;28;19905;-70
2023/08/25 14:13:49;;;;;;;;;;;;;;;;;;5014471;28;20031;-70
2023/08/25 14:16:14;;;;;;;;;;;;;;;;;;5033829;28;19905;-70
2023/08/25 14:18:40;;;;;;;;;;;;;;;;;;5031724;28;20356;-70
2023/08/25 14:21:06;;;;;;;;;;;;;;;;;;5014798;28;19905;-71
2023/08/25 14:23:32;;;;;;;;;;;;;;;;;;5033131;28;20009;-70
2023/08/25 14:25:58;;;;;;;;;;;;;;;;;;5033969;28;19984;-70
2023/08/25 14:28:24;;;;;;;;;;;;;;;;;;5051357;28;19912;-71
2023/08/25 14:30:50;;;;;;;;;;;;;;;;;;5051131;28;20304;-70
2023/08/25 14:33:16;;;;;;;;;;;;;;;;;;5044080;28;20007;-70
2023/08/25 14:35:42;;;;;;;;;;;;;;;;;;5032751;28;20392;-70
2023/08/25 14:38:08;;;;;;;;;;;;;;;;;;5031563;28;19905;-72
2023/08/25 14:40:34;;;;;;;;;;;;;;;;;;5032046;28;19905;-70
2023/08/25 14:43:00;;;;;;;;;;;;;;;;;;5030652;28;19916;-70
2023/08/25 14:45:26;;;;;;;;;;;;;;;;;;5031513;28;19905;-71
2023/08/25 14:47:52;;;;;;;;;;;;;;;;;;5013526;28;20026;-70
2023/08/25 14:50:18;;;;;;;;;;;;;;;;;;5032208;28;19988;-70
2023/08/25 14:52:44;;;;;;;;;;;;;;;;;;5031949;28;20288;-70
2023/08/25 14:55:11;;;;;;;;;;;;;;;;;;5031701;28;19920;-70
2023/08/25 14:57:37;;;;;;;;;;;;;;;;;;5031074;28;19912;-71
2023/08/25 15:00:03;;;;;;;;;;;;;;;;;;5031358;28;20335;-71
2023/08/25 15:02:29;;;;;;;;;;;;;;;;;;5032069;28;19909;-71
2023/08/25 15:04:55;;;;;;;;;;;;;;;;;;5013567;28;19911;-70
2023/08/25 15:07:21;;;;;;;;;;;;;;;;;;5030990;28;19912;-69
2023/08/25 15:09:47;;;;;;;;;;;;;;;;;;5031592;28;19905;-70
2023/08/25 15:12:13;;;;;;;;;;;;;;;;;;5031508;28;19912;-70
2023/08/25 15:14:39;;;;;;;;;;;;;;;;;;5031387;28;19939;-69
2023/08/25 15:17:05;;;;;;;;;;;;;;;;;;5031371;28;19909;-70
2023/08/25 15:19:31;;;;;;;;;;;;;;;;;;5031120;28;20365;-70
2023/08/25 15:21:57;;;;;;;;;;;;;;;;;;5031288;28;19955;-71
2023/08/25 15:24:23;;;;;;;;;;;;;;;;;;5031530;28;19959;-72
2023/08/25 15:26:49;;;;;;;;;;;;;;;;;;5031432;28;20277;-69
2023/08/25 15:29:15;;;;;;;;;;;;;;;;;;5030784;28;19901;-69
2023/08/25 15:31:41;;;;;;;;;;;;;;;;;;5031267;28;19905;-70
2023/08/25 15:34:07;;;;;;;;;;;;;;;;;;5031308;28;20000;-70
2023/08/25 15:36:33;;;;;;;;;;;;;;;;;;5031224;28;19921;-70
2023/08/25 15:39:00;;;;;;;;;;;;;;;;;;5030738;28;19905;-70
2023/08/25 15:41:26;;;;;;;;;;;;;;;;;;5013740;28;20242;-70
2023/08/25 15:43:56;;;;;;;;;;;;;;;;;;5030966;28;19911;-70
2023/08/25 15:46:21;;;;;;;;;;;;;;;;;;5031425;28;20356;-69
2023/08/25 15:48:47;;;;;;;;;;;;;;;;;;5030611;28;19998;-69
2023/08/25 15:51:14;;;;;;;;;;;;;;;;;;5031287;28;19909;-70
2023/08/25 15:53:40;;;;;;;;;;;;;;;;;;5031152;28;20004;-70
2023/08/25 15:56:06;;;;;;;;;;;;;;;;;;5031220;28;20365;-70
2023/08/25 15:58:34;;;;;;;;;;;;;;;;;;5030304;28;19944;-70
2023/08/25 16:01:01;;;;;;;;;;;;;;;;;;5031088;28;19913;-70
2023/08/25 16:03:27;;;;;;;;;;;;;;;;;;5031095;28;19912;-70
2023/08/25 16:05:52;;;;;;;;;;;;;;;;;;5031073;28;20323;-70
2023/08/25 16:08:18;;;;;;;;;;;;;;;;;;5030396;28;20402;-71
2023/08/25 16:10:44;;;;;;;;;;;;;;;;;;5030812;28;19997;-70
2023/08/25 16:13:10;;;;;;;;;;;;;;;;;;5030682;28;19908;-70
2023/08/25 16:15:39;;;;;;;;;;;;;;;;;;5031976;28;20434;-70
2023/08/25 16:18:05;;;;;;;;;;;;;;;;;;5036634;28;19941;-71
2023/08/25 16:20:33;;;;;;;;;;;;;;;;;;5036314;28;19905;-72
2023/08/25 16:22:59;;;;;;;;;;;;;;;;;;5037698;28;19952;-71
2023/08/25 16:25:27;;;;;;;;;;;;;;;;;;5035010;28;19916;-71
2023/08/25 16:27:53;;;;;;;;;;;;;;;;;;5033819;28;19987;-70
2023/08/25 16:30:21;;;;;;;;;;;;;;;;;;5036616;28;19905;-70
2023/08/25 16:32:48;;;;;;;;;;;;;;;;;;5033977;28;20368;-71
2023/08/25 16:35:14;;;;;;;;;;;;;;;;;;5031579;28;19948;-70
2023/08/25 16:37:40;;;;;;;;;;;;;;;;;;5033877;28;20199;-70